createdAt,value
2019-03-04T00:01:52.161Z,96608.58
2019-03-04T00:04:23.581Z,96606.38
2019-03-04T00:06:53.897Z,96603.34
2019-03-04T00:09:24.197Z,96602.73
2019-03-04T00:11:54.483Z,96607.24
2019-03-04T00:14:24.809Z,96609.45
2019-03-04T00:16:55.070Z,96611.88
2019-03-04T00:19:25.351Z,96616.11
2019-03-04T00:21:55.634Z,96607.11
2019-03-04T00:24:25.950Z,96603.94
2019-03-04T00:26:56.212Z,96600.14
2019-03-04T00:29:26.589Z,96599.92
2019-03-04T00:31:56.802Z,96599.92
2019-03-04T00:34:27.054Z,96604.42
2019-03-04T00:36:57.343Z,96599.92
2019-03-04T00:39:27.677Z,96605.62
2019-03-04T00:41:58.017Z,96605.89
2019-03-04T00:44:28.291Z,96600.73
2019-03-04T00:46:58.594Z,96601.22
2019-03-04T00:49:28.899Z,96600.00
2019-03-04T00:51:59.143Z,96597.44
2019-03-04T00:54:29.432Z,96579.25
2019-03-04T00:57:00.166Z,96570.34
2019-03-04T00:59:31.407Z,96569.00
2019-03-04T01:02:01.807Z,96564.37
2019-03-04T01:04:32.196Z,96565.58
2019-03-04T01:07:02.940Z,96566.44
2019-03-04T01:09:33.282Z,96559.34
2019-03-04T01:12:03.611Z,96562.16
2019-03-04T01:14:33.857Z,96560.81
2019-03-04T01:17:04.157Z,96553.14
2019-03-04T01:19:34.478Z,96551.80
2019-03-04T01:22:04.784Z,96543.02
2019-03-04T01:24:35.021Z,96538.13
2019-03-04T01:27:05.288Z,96538.48
2019-03-04T01:29:35.544Z,96538.25
2019-03-04T01:32:05.889Z,96538.25
2019-03-04T01:34:37.415Z,96524.83
2019-03-04T01:37:07.702Z,96525.19
2019-03-04T01:39:38.070Z,96520.30
2019-03-04T01:42:08.446Z,96516.39
2019-03-04T01:44:38.733Z,96511.41
2019-03-04T01:47:08.990Z,96515.66
2019-03-04T01:49:39.240Z,96514.09
2019-03-04T01:52:09.604Z,96509.20
2019-03-04T01:54:39.850Z,96498.09
2019-03-04T01:57:10.139Z,96504.45
2019-03-04T01:59:40.447Z,96498.09
2019-03-04T02:02:10.700Z,96484.45
2019-03-04T02:04:41.133Z,96483.11
2019-03-04T02:07:11.407Z,96479.56
2019-03-04T02:09:41.617Z,96481.50
2019-03-04T02:12:12.013Z,96477.23
2019-03-04T02:14:42.242Z,96471.98
2019-03-04T02:17:12.556Z,96475.41
2019-03-04T02:19:42.827Z,96467.61
2019-03-04T02:22:13.115Z,96466.75
2019-03-04T02:24:43.323Z,96457.10
2019-03-04T02:27:13.795Z,96449.91
2019-03-04T02:29:44.136Z,96450.04
2019-03-04T02:32:14.478Z,96441.99
2019-03-04T02:34:46.018Z,96440.14
2019-03-04T02:37:16.504Z,96436.11
2019-03-04T02:39:46.800Z,96433.42
2019-03-04T02:42:17.217Z,96433.94
2019-03-04T02:44:47.466Z,96439.91
2019-03-04T02:47:17.713Z,96436.63
2019-03-04T02:49:49.336Z,96438.44
2019-03-04T02:52:19.581Z,96423.56
2019-03-04T02:54:49.804Z,96438.06
2019-03-04T02:57:20.098Z,96430.14
2019-03-04T02:59:50.387Z,96434.55
2019-03-04T03:02:20.718Z,96436.11
2019-03-04T03:04:50.999Z,96431.26
2019-03-04T03:07:21.336Z,96430.62
2019-03-04T03:09:51.646Z,96429.66
2019-03-04T03:12:23.086Z,96426.11
2019-03-04T03:14:53.702Z,96440.74
2019-03-04T03:17:23.983Z,96433.91
2019-03-04T03:19:54.314Z,96426.37
2019-03-04T03:22:24.656Z,96429.41
2019-03-04T03:24:55.007Z,96426.84
2019-03-04T03:27:25.245Z,96428.67
2019-03-04T03:29:55.979Z,96414.52
2019-03-04T03:32:26.403Z,96422.95
2019-03-04T03:34:56.689Z,96408.20
2019-03-04T03:37:26.938Z,96404.65
2019-03-04T03:39:57.247Z,96408.93
2019-03-04T03:42:27.688Z,96404.91
2019-03-04T03:44:57.930Z,96409.53
2019-03-04T03:47:28.184Z,96404.78
2019-03-04T03:49:58.578Z,96414.42
2019-03-04T03:52:28.905Z,96412.70
2019-03-04T03:54:59.206Z,96412.34
2019-03-04T03:57:29.495Z,96407.94
2019-03-04T03:59:59.811Z,96411.27
2019-03-04T04:02:30.178Z,96412.61
2019-03-04T04:05:00.554Z,96414.91
2019-03-04T04:07:30.765Z,96409.28
2019-03-04T04:10:01.185Z,96408.32
2019-03-04T04:12:32.396Z,96406.85
2019-03-04T04:15:02.831Z,96402.95
2019-03-04T04:17:33.181Z,96406.50
2019-03-04T04:20:03.409Z,96399.28
2019-03-04T04:22:33.777Z,96396.50
2019-03-04T04:25:04.032Z,96401.01
2019-03-04T04:27:34.442Z,96402.95
2019-03-04T04:30:04.846Z,96399.41
2019-03-04T04:32:35.208Z,96395.38
2019-03-04T04:35:05.816Z,96401.13
2019-03-04T04:37:36.107Z,96393.31
2019-03-04T04:40:07.494Z,96391.01
2019-03-04T04:42:37.768Z,96395.03
2019-03-04T04:45:08.091Z,96393.82
2019-03-04T04:47:38.397Z,96387.46
2019-03-04T04:50:10.062Z,96386.50
2019-03-04T04:52:40.433Z,96388.33
2019-03-04T04:55:10.921Z,96381.01
2019-03-04T04:57:41.209Z,96381.14
2019-03-04T05:00:13.410Z,96372.70
2019-03-04T05:02:43.817Z,96365.99
2019-03-04T05:05:14.337Z,96369.55
2019-03-04T05:07:44.728Z,96367.72
2019-03-04T05:10:17.055Z,96373.91
2019-03-04T05:12:47.329Z,96365.86
2019-03-04T05:15:18.673Z,96348.94
2019-03-04T05:17:48.911Z,96341.84
2019-03-04T05:20:20.703Z,96349.03
2019-03-04T05:22:51.056Z,96349.89
2019-03-04T05:25:21.473Z,96331.11
2019-03-04T05:27:51.716Z,96329.29
2019-03-04T05:30:22.009Z,96330.63
2019-03-04T05:32:52.263Z,96347.81
2019-03-04T05:35:22.851Z,96348.06
2019-03-04T05:37:53.213Z,96355.38
2019-03-04T05:40:23.792Z,96357.72
2019-03-04T05:42:54.119Z,96357.20
2019-03-04T05:45:24.643Z,96355.88
2019-03-04T05:47:55.161Z,96350.25
2019-03-04T05:50:25.505Z,96348.69
2019-03-04T05:52:55.811Z,96351.97
2019-03-04T05:55:26.090Z,96341.01
2019-03-04T05:57:56.443Z,96342.23
2019-03-04T06:00:28.923Z,96343.44
2019-03-04T06:02:59.216Z,96344.42
2019-03-04T06:05:30.490Z,96341.48
2019-03-04T06:08:03.036Z,96341.34
2019-03-04T06:10:33.387Z,96330.52
2019-03-04T06:13:04.810Z,96337.22
2019-03-04T06:15:35.123Z,96344.03
2019-03-04T06:18:05.443Z,96339.66
2019-03-04T06:20:35.826Z,96338.80
2019-03-04T06:23:06.134Z,96333.20
2019-03-04T06:25:36.505Z,96337.82
2019-03-04T06:28:06.918Z,96343.54
2019-03-04T06:30:37.247Z,96341.23
2019-03-04T06:33:07.521Z,96339.64
2019-03-04T06:35:37.769Z,96331.97
2019-03-04T06:38:08.079Z,96337.94
2019-03-04T06:40:38.385Z,96337.08
2019-03-04T06:43:08.632Z,96330.62
2019-03-04T06:45:39.950Z,96329.02
2019-03-04T06:48:10.176Z,96328.05
2019-03-04T06:50:51.414Z,96321.20
2019-03-04T06:54:02.724Z,96316.22
2019-03-04T06:56:42.923Z,96315.36
2019-03-04T06:59:18.947Z,96313.63
2019-03-04T07:01:54.129Z,96316.56
2019-03-04T07:04:35.769Z,96312.79
2019-03-04T07:07:06.133Z,96307.91
2019-03-04T07:09:36.430Z,96301.67
2019-03-04T07:12:06.768Z,96301.44
2019-03-04T07:14:37.143Z,96291.31
2019-03-04T07:17:07.348Z,96302.40
2019-03-04T07:19:39.465Z,96299.09
2019-03-04T07:22:11.073Z,96294.11
2019-03-04T07:24:42.535Z,96298.86
2019-03-04T07:27:12.870Z,96293.49
2019-03-04T07:29:43.303Z,96301.55
2019-03-04T07:32:13.556Z,96292.02
2019-03-04T07:34:44.305Z,96296.05
2019-03-04T07:37:14.543Z,96293.74
2019-03-04T07:39:44.887Z,96301.18
2019-03-04T07:42:15.136Z,96298.12
2019-03-04T07:44:45.479Z,96289.09
2019-03-04T07:47:15.799Z,96279.46
2019-03-04T07:49:49.754Z,96278.70
2019-03-04T07:52:20.048Z,96268.83
2019-03-04T07:54:50.554Z,96263.80
2019-03-04T07:57:20.891Z,96266.77
2019-03-04T07:59:51.215Z,96262.12
2019-03-04T08:02:23.117Z,96255.16
2019-03-04T08:04:53.323Z,96250.66
2019-03-04T08:07:47.096Z,96246.14
2019-03-04T08:10:46.350Z,96229.55
2019-03-04T08:13:29.345Z,96239.42
2019-03-04T08:16:00.314Z,96238.22
2019-03-04T08:18:30.673Z,96245.66
2019-03-04T08:21:00.942Z,96233.44
2019-03-04T08:23:31.230Z,96232.82
2019-03-04T08:26:01.542Z,96218.05
2019-03-04T08:28:31.832Z,96224.62
2019-03-04T08:31:02.260Z,96218.05
2019-03-04T08:33:32.596Z,96209.52
2019-03-04T08:36:02.928Z,96195.57
2019-03-04T08:38:33.359Z,96181.66
2019-03-04T08:41:03.757Z,96169.71
2019-03-04T08:43:35.099Z,96155.66
2019-03-04T08:46:06.462Z,96157.35
2019-03-04T08:48:36.680Z,96172.13
2019-03-04T08:51:06.989Z,96163.58
2019-03-04T08:53:37.219Z,96158.21
2019-03-04T08:56:07.486Z,96157.25
2019-03-04T08:58:38.790Z,96152.70
2019-03-04T09:01:09.061Z,96146.98
2019-03-04T09:03:39.328Z,96146.13
2019-03-04T09:06:10.672Z,96147.57
2019-03-04T09:08:42.453Z,96139.03
2019-03-04T09:11:12.818Z,96138.55
2019-03-04T09:13:43.129Z,96139.52
2019-03-04T09:16:13.494Z,96144.54
2019-03-04T09:18:43.963Z,96140.86
2019-03-04T09:21:14.282Z,96137.45
2019-03-04T09:23:44.641Z,96127.42
2019-03-04T09:26:16.017Z,96131.94
2019-03-04T09:28:48.534Z,96124.73
2019-03-04T09:31:18.758Z,96125.95
2019-03-04T09:33:49.065Z,96121.57
2019-03-04T09:36:19.375Z,96099.09
2019-03-04T09:38:50.409Z,96087.14
2019-03-04T09:41:20.691Z,96086.66
2019-03-04T09:43:51.032Z,96088.48
2019-03-04T09:46:21.250Z,96085.31
2019-03-04T09:48:51.571Z,96077.26
2019-03-04T09:51:24.610Z,96092.52
2019-03-04T09:53:53.834Z,96098.37
2019-03-04T09:56:24.155Z,96103.53
2019-03-04T09:58:54.392Z,96088.63
2019-03-04T10:01:32.105Z,96072.13
2019-03-04T10:04:32.259Z,96066.66
2019-03-04T10:07:18.813Z,96059.31
2019-03-04T10:10:48.399Z,96056.25
2019-03-04T10:14:11.989Z,96043.59
2019-03-04T10:17:11.071Z,96036.50
2019-03-04T10:20:17.490Z,96034.19
2019-03-04T10:23:04.516Z,96037.73
2019-03-04T10:25:52.112Z,96031.36
2019-03-04T10:28:48.279Z,96026.85
2019-03-04T10:31:37.381Z,96030.51
2019-03-04T10:34:54.772Z,96027.82
2019-03-04T10:37:59.255Z,96029.68
2019-03-04T10:41:00.128Z,96021.73
2019-03-04T10:44:20.575Z,96023.08
2019-03-04T10:46:59.103Z,96016.73
2019-03-04T10:49:30.702Z,96012.95
2019-03-04T10:52:01.318Z,96006.48
2019-03-04T10:54:31.702Z,95994.88
2019-03-04T10:57:02.020Z,95991.22
2019-03-04T10:59:32.354Z,95990.84
2019-03-04T11:02:02.701Z,95984.65
2019-03-04T11:04:32.983Z,95978.77
2019-03-04T11:07:04.339Z,95987.45
2019-03-04T11:09:34.592Z,95973.68
2019-03-04T11:12:06.028Z,95974.73
2019-03-04T11:14:36.345Z,95977.42
2019-03-04T11:17:06.685Z,95975.59
2019-03-04T11:19:36.994Z,95967.45
2019-03-04T11:22:11.083Z,95953.39
2019-03-04T11:24:41.434Z,95963.66
2019-03-04T11:27:11.813Z,95947.54
2019-03-04T11:29:42.672Z,95948.88
2019-03-04T11:32:12.964Z,95949.37
2019-03-04T11:34:43.219Z,95936.42
2019-03-04T11:37:13.557Z,95928.88
2019-03-04T11:40:02.659Z,95923.86
2019-03-04T11:42:34.081Z,95904.20
2019-03-04T11:45:05.595Z,95896.14
2019-03-04T11:47:36.287Z,95891.06
2019-03-04T11:50:09.624Z,95890.06
2019-03-04T11:52:39.944Z,95885.31
2019-03-04T11:55:11.300Z,95883.87
2019-03-04T11:57:41.599Z,95885.06
2019-03-04T12:00:15.435Z,95878.35
2019-03-04T12:02:46.933Z,95871.78
2019-03-04T12:05:17.327Z,95856.87
2019-03-04T12:07:47.642Z,95857.20
2019-03-04T12:10:18.164Z,95863.20
2019-03-04T12:12:49.009Z,95848.33
2019-03-04T12:15:19.893Z,95835.02
2019-03-04T12:17:50.257Z,95830.50
2019-03-04T12:20:20.595Z,95831.50
2019-03-04T12:22:53.736Z,95832.22
2019-03-04T12:25:24.085Z,95825.98
2019-03-04T12:27:54.547Z,95813.19
2019-03-04T12:30:24.913Z,95818.41
2019-03-04T12:32:55.248Z,95814.24
2019-03-04T12:35:25.521Z,95810.84
2019-03-04T12:37:57.277Z,95804.13
2019-03-04T12:40:27.677Z,95798.05
2019-03-04T12:42:57.991Z,95785.26
2019-03-04T12:45:34.305Z,95777.43
2019-03-04T12:48:00.369Z,95769.52
2019-03-04T12:50:30.717Z,95769.52
2019-03-04T12:53:01.343Z,95759.98
2019-03-04T12:55:33.016Z,95756.44
2019-03-04T12:58:03.517Z,95740.84
2019-03-04T13:00:33.929Z,95758.41
2019-03-04T13:03:04.328Z,95741.96
2019-03-04T13:05:34.624Z,95747.67
2019-03-04T13:08:04.975Z,95743.01
2019-03-04T13:10:40.575Z,95747.03
2019-03-04T13:13:10.884Z,95745.84
2019-03-04T13:15:41.332Z,95728.53
2019-03-04T13:18:12.669Z,95720.33
2019-03-04T13:20:45.185Z,95706.42
2019-03-04T13:23:21.296Z,95698.00
2019-03-04T13:25:52.727Z,95697.66
2019-03-04T13:28:23.222Z,95690.47
2019-03-04T13:30:54.101Z,95688.09
2019-03-04T13:33:24.375Z,95679.81
2019-03-04T13:35:54.653Z,95676.00
2019-03-04T13:38:24.844Z,95667.58
2019-03-04T13:40:55.824Z,95663.29
2019-03-04T13:43:26.321Z,95645.98
2019-03-04T13:45:56.722Z,95646.96
2019-03-04T13:48:27.074Z,95655.02
2019-03-04T13:50:57.364Z,95639.39
2019-03-04T13:53:27.678Z,95631.98
2019-03-04T13:55:57.962Z,95633.69
2019-03-04T13:58:28.231Z,95618.44
2019-03-04T14:00:58.567Z,95602.03
2019-03-04T14:03:28.958Z,95611.09
2019-03-04T14:06:02.667Z,95608.41
2019-03-04T14:08:34.350Z,95597.78
2019-03-04T14:11:06.321Z,95597.78
2019-03-04T14:13:36.598Z,95592.78
2019-03-04T14:16:07.156Z,95593.13
2019-03-04T14:18:37.510Z,95597.85
2019-03-04T14:21:08.783Z,95579.92
2019-03-04T14:23:39.013Z,95583.73
2019-03-04T14:26:09.331Z,95587.91
2019-03-04T14:28:39.670Z,95589.39
2019-03-04T14:31:09.893Z,95576.46
2019-03-04T14:33:40.260Z,95589.73
2019-03-04T14:36:10.638Z,95580.70
2019-03-04T14:38:42.487Z,95583.23
2019-03-04T14:41:13.834Z,95586.41
2019-03-04T14:43:44.226Z,95589.25
2019-03-04T14:46:27.470Z,95591.78
2019-03-04T14:48:57.802Z,95579.70
2019-03-04T14:51:29.086Z,95578.23
2019-03-04T14:54:02.600Z,95585.59
2019-03-04T14:56:32.836Z,95584.73
2019-03-04T14:59:10.293Z,95580.16
2019-03-04T15:01:35.288Z,95578.74
2019-03-04T15:04:05.574Z,95588.96
2019-03-04T15:06:35.840Z,95572.67
2019-03-04T15:09:09.151Z,95576.17
2019-03-04T15:11:41.007Z,95578.53
2019-03-04T15:14:11.432Z,95585.50
2019-03-04T15:16:41.776Z,95594.78
2019-03-04T15:19:12.083Z,95585.88
2019-03-04T15:21:42.451Z,95601.27
2019-03-04T15:24:12.953Z,95590.05
2019-03-04T15:26:44.267Z,95589.34
2019-03-04T15:29:14.606Z,95592.78
2019-03-04T15:31:44.968Z,95605.71
2019-03-04T15:34:17.011Z,95606.01
2019-03-04T15:36:48.030Z,95620.25
2019-03-04T15:39:22.975Z,95621.48
2019-03-04T15:41:50.428Z,95619.77
2019-03-04T15:44:20.717Z,95619.62
2019-03-04T15:46:51.079Z,95623.53
2019-03-04T15:49:21.328Z,95619.20
2019-03-04T15:51:52.686Z,95619.35
2019-03-04T15:54:22.925Z,95623.53
2019-03-04T15:56:53.236Z,95619.35
2019-03-04T15:59:23.543Z,95624.23
2019-03-04T16:01:53.903Z,95622.19
2019-03-04T16:04:24.174Z,95614.33
2019-03-04T16:06:54.470Z,95620.48
2019-03-04T16:09:25.736Z,95618.77
2019-03-04T16:11:56.112Z,95629.02
2019-03-04T16:14:26.392Z,95617.58
2019-03-04T16:16:56.807Z,95629.80
2019-03-04T16:19:27.160Z,95633.19
2019-03-04T16:21:57.595Z,95636.72
2019-03-04T16:24:27.897Z,95634.37
2019-03-04T16:26:58.231Z,95627.11
2019-03-04T16:29:36.912Z,95624.58
2019-03-04T16:32:00.561Z,95633.67
2019-03-04T16:34:30.923Z,95636.13
2019-03-04T16:37:05.512Z,95644.41
2019-03-04T16:39:35.999Z,95646.12
2019-03-04T16:42:07.903Z,95649.21
2019-03-04T16:44:39.942Z,95646.90
2019-03-04T16:47:10.518Z,95647.38
2019-03-04T16:49:40.800Z,95634.11
2019-03-04T16:52:11.234Z,95642.02
2019-03-04T16:54:42.574Z,95653.45
2019-03-04T16:57:14.108Z,95644.06
2019-03-04T16:59:44.418Z,95644.70
2019-03-04T17:02:14.749Z,95645.52
2019-03-04T17:04:45.038Z,95653.45
2019-03-04T17:07:15.301Z,95649.77
2019-03-04T17:09:45.706Z,95644.06
2019-03-04T17:12:16.076Z,95649.43
2019-03-04T17:14:46.426Z,95651.89
2019-03-04T17:17:16.723Z,95655.84
2019-03-04T17:19:47.069Z,95636.20
2019-03-04T17:22:17.391Z,95651.25
2019-03-04T17:24:47.667Z,95648.42
2019-03-04T17:27:17.997Z,95646.08
2019-03-04T17:29:48.458Z,95652.78
2019-03-04T17:32:18.832Z,95655.47
2019-03-04T17:34:49.151Z,95660.27
2019-03-04T17:37:19.547Z,95654.50
2019-03-04T17:39:49.901Z,95656.17
2019-03-04T17:42:21.053Z,95661.20
2019-03-04T17:44:51.404Z,95672.48
2019-03-04T17:47:21.751Z,95687.25
2019-03-04T17:49:53.322Z,95687.73
2019-03-04T17:52:23.695Z,95683.78
2019-03-04T17:54:54.085Z,95691.28
2019-03-04T17:57:25.790Z,95692.99
2019-03-04T17:59:56.325Z,95695.67
2019-03-04T18:02:27.710Z,95706.27
2019-03-04T18:04:58.033Z,95708.95
2019-03-04T18:07:28.609Z,95719.23
2019-03-04T18:09:59.000Z,95714.86
2019-03-04T18:12:29.533Z,95710.98
2019-03-04T18:14:59.865Z,95711.70
2019-03-04T18:17:30.229Z,95727.50
2019-03-04T18:20:01.717Z,95735.33
2019-03-04T18:22:33.679Z,95746.77
2019-03-04T18:25:04.152Z,95760.27
2019-03-04T18:28:12.827Z,95771.86
2019-03-04T18:31:08.818Z,95780.91
2019-03-04T18:34:38.294Z,95788.19
2019-03-04T18:37:37.672Z,95798.98
2019-03-04T18:40:44.220Z,95842.93
2019-03-04T18:44:07.844Z,95880.72
2019-03-04T18:47:17.944Z,95913.41
2019-03-04T18:49:48.545Z,95976.22
2019-03-04T18:52:19.234Z,96012.61
2019-03-04T18:54:49.856Z,96024.58
2019-03-04T18:57:20.320Z,96027.37
2019-03-04T18:59:57.364Z,96042.50
2019-03-04T19:02:27.907Z,96033.97
2019-03-04T19:04:58.480Z,96023.14
2019-03-04T19:07:29.069Z,96057.11
2019-03-04T19:09:59.559Z,96070.66
2019-03-04T19:12:31.095Z,96087.62
2019-03-04T19:15:01.667Z,96096.63
2019-03-04T19:17:33.933Z,96112.59
2019-03-04T19:20:04.914Z,96107.23
2019-03-04T19:22:37.689Z,96095.53
2019-03-04T19:25:08.273Z,96098.56
2019-03-04T19:27:38.910Z,96121.13
2019-03-04T19:30:10.302Z,96136.36
2019-03-04T19:32:40.836Z,96142.94
2019-03-04T19:35:11.274Z,96135.27
2019-03-04T19:37:42.028Z,96112.33
2019-03-04T19:40:13.428Z,96101.97
2019-03-04T19:42:43.564Z,96090.63
2019-03-04T19:45:14.484Z,96096.71
2019-03-04T19:47:44.945Z,96095.37
2019-03-04T19:50:15.377Z,96110.34
2019-03-04T19:52:45.667Z,96117.66
2019-03-04T19:55:17.133Z,96115.36
2019-03-04T19:57:47.473Z,96118.28
2019-03-04T20:00:19.092Z,96115.70
2019-03-04T20:02:49.654Z,96121.93
2019-03-04T20:05:20.406Z,96126.67
2019-03-04T20:07:50.829Z,96134.84
2019-03-04T20:10:21.261Z,96152.52
2019-03-04T20:12:51.660Z,96145.33
2019-03-04T20:15:23.067Z,96158.38
2019-03-04T20:17:53.513Z,96139.59
2019-03-04T20:20:26.603Z,96131.05
2019-03-04T20:22:57.007Z,96147.88
2019-03-04T20:25:29.275Z,96123.24
2019-03-04T20:27:59.599Z,96112.72
2019-03-04T20:30:31.633Z,96097.95
2019-03-04T20:33:02.089Z,96081.75
2019-03-04T20:35:32.495Z,96062.10
2019-03-04T20:38:03.163Z,96029.75
2019-03-04T20:40:34.561Z,96027.45
2019-03-04T20:43:05.086Z,96020.12
2019-03-04T20:45:35.432Z,96010.20
2019-03-04T20:48:06.028Z,96006.18
2019-03-04T20:50:36.427Z,95987.62
2019-03-04T20:53:06.913Z,95994.57
2019-03-04T20:55:37.254Z,95995.05
2019-03-04T20:58:07.665Z,95994.43
2019-03-04T21:00:38.183Z,95988.09
2019-03-04T21:03:09.643Z,95979.19
2019-03-04T21:05:40.156Z,95984.89
2019-03-04T21:08:12.818Z,95992.84
2019-03-04T21:10:43.357Z,96005.41
2019-03-04T21:13:22.230Z,96009.67
2019-03-04T21:15:53.201Z,96002.81
2019-03-04T21:18:23.720Z,95996.05
2019-03-04T21:20:54.123Z,96007.03
2019-03-04T21:23:24.646Z,96002.75
2019-03-04T21:26:37.919Z,96010.80
2019-03-04T21:29:30.293Z,96003.98
2019-03-04T21:32:32.945Z,95983.70
2019-03-04T21:35:44.907Z,95989.30
2019-03-04T21:38:15.598Z,95986.63
2019-03-04T21:41:00.459Z,95962.80
2019-03-04T21:43:38.883Z,95964.37
2019-03-04T21:46:38.563Z,95972.19
2019-03-04T21:49:11.164Z,95967.53
2019-03-04T21:52:19.444Z,95968.25
2019-03-04T21:54:41.420Z,95975.45
2019-03-04T21:57:26.219Z,95968.97
2019-03-04T21:59:56.700Z,95971.17
2019-03-04T22:02:34.503Z,95981.05
2019-03-04T22:05:08.760Z,95988.25
2019-03-04T22:07:40.658Z,95984.37
2019-03-04T22:10:11.662Z,95988.77
2019-03-04T22:12:41.986Z,95994.97
2019-03-04T22:15:12.288Z,96005.85
2019-03-04T22:17:42.768Z,96016.11
2019-03-04T22:20:13.534Z,96022.34
2019-03-04T22:22:43.928Z,96026.00
2019-03-04T22:25:14.520Z,96035.25
2019-03-04T22:27:45.004Z,96045.17
2019-03-04T22:30:16.276Z,96048.34
2019-03-04T22:32:46.771Z,96064.08
2019-03-04T22:35:17.670Z,96070.16
2019-03-04T22:37:48.174Z,96065.31
2019-03-04T22:40:19.516Z,96079.08
2019-03-04T22:42:49.897Z,96087.00
2019-03-04T22:45:20.193Z,96091.65
2019-03-04T22:47:50.851Z,96091.17
2019-03-04T22:50:21.224Z,96087.52
2019-03-04T22:52:51.535Z,96091.89
2019-03-04T22:55:28.486Z,96089.34
2019-03-04T22:57:58.798Z,96092.52
2019-03-04T23:01:29.572Z,96092.99
2019-03-04T23:04:15.049Z,96090.20
2019-03-04T23:06:51.285Z,96096.40
2019-03-04T23:09:21.936Z,96095.58
2019-03-04T23:11:57.611Z,96093.61
2019-03-04T23:14:29.312Z,96109.72
2019-03-04T23:17:00.245Z,96103.01
2019-03-04T23:19:30.621Z,96108.48
2019-03-04T23:22:01.044Z,96109.72
2019-03-04T23:24:31.387Z,96115.92
2019-03-04T23:27:01.691Z,96126.66
2019-03-04T23:29:32.219Z,96134.86
2019-03-04T23:32:02.514Z,96141.95
2019-03-04T23:34:35.710Z,96154.04
2019-03-04T23:37:06.106Z,96159.52
2019-03-04T23:39:37.416Z,96163.55
2019-03-04T23:42:07.781Z,96176.97
2019-03-04T23:44:38.198Z,96177.97
2019-03-04T23:47:08.453Z,96193.47
2019-03-04T23:49:38.803Z,96203.63
2019-03-04T23:52:09.216Z,96200.42
2019-03-04T23:54:39.533Z,96212.41
2019-03-04T23:57:09.865Z,96205.45
2019-03-04T23:59:40.194Z,96206.66
